Monday, May 30, 2016, 2:12 PM EDT

KW99, Petersburg, Grant County Airport

Location: Petersburg, WV, United States Lat: 38.983
Local Time: 2:12 PM EDT (18:12 GMT) Lon: -79.133
Time Zone: US/Eastern Elev: 961 ft

Show me the last for .
Show Decoded

2016-05-30 13:55 METAR KW99 301755Z AUTO 10005KT 10SM CLR 28/18 A2999 RMK AO2 T02780177 10287
                 20180 =
2016-05-30 13:35 METAR KW99 301735Z AUTO 09007KT 10SM CLR 29/20 A3000 RMK AO2 T02870202 =
2016-05-30 13:15 METAR KW99 301715Z AUTO 14003KT 10SM CLR 28/20 A3000 RMK AO2 T02820196 =
2016-05-30 12:55 METAR KW99 301655Z AUTO 00000KT 10SM CLR 28/20 A3001 RMK AO2 T02770198 =
2016-05-30 12:35 METAR KW99 301635Z AUTO 12004KT 10SM CLR 27/19 A3001 RMK AO2 T02700187 =
2016-05-30 12:15 METAR KW99 301615Z AUTO 00000KT 10SM CLR 27/19 A3002 RMK AO2 T02690189 =
2016-05-30 11:55 METAR KW99 301555Z AUTO 00000KT 10SM CLR 26/17 A3002 RMK AO2 T02640174 =
2016-05-30 11:35 METAR KW99 301535Z AUTO 00000KT 10SM CLR 26/18 A3002 RMK AO2 T02620182 =
2016-05-30 11:15 METAR KW99 301515Z AUTO 00000KT 10SM CLR 26/18 A3003 RMK AO2 T02570178 =
2016-05-30 10:55 METAR KW99 301455Z AUTO 00000KT 10SM CLR 25/17 A3004 RMK AO2 T02470174 =
2016-05-30 10:35 METAR KW99 301435Z AUTO 00000KT 10SM CLR 24/18 A3003 RMK AO2 T02350175 =
2016-05-30 10:15 METAR KW99 301415Z AUTO 00000KT 10SM CLR 22/17 A3005 RMK AO2 T02240171 =
2016-05-30 09:55 METAR KW99 301355Z AUTO 00000KT 10SM CLR 22/17 A3005 RMK AO2 T02170168 =
2016-05-30 09:35 METAR KW99 301335Z AUTO 00000KT 10SM CLR 21/17 A3006 RMK AO2 T02070166 =
2016-05-30 09:15 METAR KW99 301315Z AUTO 00000KT 10SM CLR 20/16 A3006 RMK AO2 T02010160 =
2016-05-30 08:55 METAR KW99 301255Z AUTO 00000KT 10SM CLR 20/16 A3006 RMK AO2 T01990162 =
2016-05-30 08:35 METAR KW99 301235Z AUTO 31003KT 10SM CLR 19/17 A3006 RMK AO2 T01900166 =
2016-05-30 08:15 METAR KW99 301215Z AUTO 00000KT 10SM SCT120 18/16 A3006 RMK AO2 T01830161 =
2016-05-30 07:55 METAR KW99 301155Z AUTO 00000KT 10SM SCT095 SCT120 18/16 A3006 RMK AO2 70002
                 T01790162 10179 20150 =
2016-05-30 07:35 METAR KW99 301135Z AUTO 00000KT 10SM BKN095 17/16 A3007 RMK AO2 T01680157 =
2016-05-30 07:15 METAR KW99 301115Z AUTO 00000KT 10SM OVC095 16/16 A3007 RMK AO2 T01600156 =
2016-05-30 06:55 METAR KW99 301055Z AUTO 00000KT 10SM BKN095 16/15 A3007 RMK AO2 T01550151 =
2016-05-30 06:35 METAR KW99 301035Z AUTO 00000KT 7SM OVC095 16/15 A3007 RMK AO2 T01550152 =
2016-05-30 06:15 METAR KW99 301015Z AUTO 00000KT 5SM BR BKN095 15/15 A3007 RMK AO2 T01500147 =
2016-05-30 05:55 METAR KW99 300955Z AUTO 00000KT 7SM CLR 15/15 A3006 RMK AO2 T01510148 =
2016-05-30 05:35 METAR KW99 300935Z AUTO 00000KT 10SM SCT100 16/15 A3005 RMK AO2 T01550151 =
2016-05-30 05:15 METAR KW99 300915Z AUTO 00000KT 10SM OVC100 16/15 A3005 RMK AO2 T01560154 =
2016-05-30 04:55 METAR KW99 300855Z AUTO 00000KT 7SM BKN100 16/16 A3005 RMK AO2 T01610159 =
2016-05-30 04:35 METAR KW99 300835Z AUTO 00000KT 7SM BKN100 16/16 A3005 RMK AO2 T01620160 =
2016-05-30 04:15 METAR KW99 300815Z AUTO 00000KT 10SM BKN100 16/16 A3005 RMK AO2 T01630160 =
2016-05-30 03:55 METAR KW99 300755Z AUTO 00000KT 10SM OVC100 17/16 A3005 RMK AO2 T01650161 =
2016-05-30 03:35 METAR KW99 300735Z AUTO 00000KT 10SM OVC100 17/16 A3006 RMK AO2 T01660160 =
2016-05-30 03:15 METAR KW99 300715Z AUTO 00000KT 10SM OVC100 17/15 A3006 RMK AO2 T01670152 =
2016-05-30 02:55 METAR KW99 300655Z AUTO 00000KT 10SM OVC100 17/16 A3007 RMK AO2 T01650159 =
2016-05-30 02:35 METAR KW99 300635Z AUTO 00000KT 10SM OVC100 17/16 A3007 RMK AO2 T01650161 =
2016-05-30 02:15 METAR KW99 300615Z AUTO 00000KT 10SM OVC100 17/16 A3007 RMK AO2 T01650161 =
2016-05-30 01:55 METAR KW99 300555Z AUTO 00000KT 10SM OVC100 17/16 A3007 RMK AO2 60001 T01680161
                 10204 20166 402660161 =
2016-05-30 01:35 METAR KW99 300535Z AUTO 00000KT 10SM OVC100 17/16 A3008 RMK AO2 T01700155 =
2016-05-30 01:15 METAR KW99 300515Z AUTO 00000KT 10SM OVC100 17/15 A3009 RMK AO2 T01670154 =
2016-05-30 00:55 METAR KW99 300455Z AUTO 00000KT 10SM OVC100 17/16 A3009 RMK AO2 T01690160 =
2016-05-30 00:35 METAR KW99 300435Z AUTO 00000KT 10SM BKN100 17/15 A3010 RMK AO2 T01710150 =
2016-05-30 00:15 METAR KW99 300415Z AUTO 00000KT 10SM CLR 18/15 A3010 RMK AO2 T01770147 =
2016-05-29 23:55 METAR KW99 300355Z AUTO 00000KT 10SM SCT110 18/16 A3010 RMK AO2 P0001 T01760158
                 =
2016-05-29 23:35 METAR KW99 300335Z AUTO 00000KT 10SM -RA SCT050 SCT065 SCT090 18/16 A3011 RMK
                 AO2 T01790162 =
2016-05-29 23:15 METAR KW99 300315Z AUTO 00000KT 10SM RA SCT050 SCT060 BKN120 18/16 A3011 RMK AO2
                 T01830163 =
2016-05-29 22:55 METAR KW99 300255Z AUTO 00000KT 10SM SCT120 18/17 A3011 RMK AO2 T01800168 =
2016-05-29 22:35 METAR KW99 300235Z AUTO 00000KT 10SM CLR 18/17 A3011 RMK AO2 T01770167 =
2016-05-29 22:15 METAR KW99 300215Z AUTO 00000KT 10SM CLR 18/17 A3011 RMK AO2 T01820165 =
2016-05-29 21:55 METAR KW99 300155Z AUTO 00000KT 10SM CLR 18/16 A3011 RMK AO2 T01830162 =
2016-05-29 21:35 METAR KW99 300135Z AUTO 00000KT 10SM CLR 19/16 A3011 RMK AO2 T01900162 =
2016-05-29 21:15 METAR KW99 300115Z AUTO 00000KT 10SM SCT090 19/17 A3011 RMK AO2 T01850165 =
2016-05-29 20:55 METAR KW99 300055Z AUTO 00000KT 10SM BKN090 19/17 A3011 RMK AO2 T01880168 =
2016-05-29 20:35 METAR KW99 300035Z AUTO 00000KT 10SM BKN080 20/17 A3011 RMK AO2 T01980165 =
2016-05-29 20:15 METAR KW99 300015Z AUTO 00000KT 10SM BKN080 BKN120 20/16 A3012 RMK AO2 T02000163
                 =
2016-05-29 19:55 METAR KW99 292355Z AUTO 00000KT 10SM SCT080 BKN120 21/16 A3012 RMK AO2 60001
                 T02050163 10264 20200 =
2016-05-29 19:35 METAR KW99 292335Z AUTO 00000KT 10SM SCT031 SCT038 OVC080 20/16 A3012 RMK AO2
                 T02030161 =
2016-05-29 19:15 METAR KW99 292315Z AUTO 30004KT 10SM -RA SCT031 BKN050 OVC080 20/16 A3011 RMK
                 AO2 T02010164 =
2016-05-29 18:55 METAR KW99 292255Z AUTO 23004KT 10SM -DZ OVC080 22/17 A3012 RMK AO2 P0001
                 T02170168 =
2016-05-29 18:35 METAR KW99 292235Z AUTO 19005KT 10SM -RA OVC080 22/18 A3012 RMK AO2 P0001
                 T02230179 =
2016-05-29 18:15 METAR KW99 292215Z AUTO 00000KT 10SM -RA OVC090 24/18 A3011 RMK AO2 T02370183 =
2016-05-29 17:55 METAR KW99 292155Z AUTO 00000KT 10SM BKN100 OVC110 24/21 A3010 RMK AO2 T02410208
                 =
2016-05-29 17:35 METAR KW99 292135Z AUTO 00000KT 10SM BKN110 25/20 A3010 RMK AO2 T02470196 =
2016-05-29 17:15 METAR KW99 292115Z AUTO 00000KT 10SM SCT120 25/20 A3010 RMK AO2 T02450200 =
2016-05-29 16:55 METAR KW99 292055Z AUTO 00000KT 10SM -RA SCT120 24/20 A3010 RMK AO2 T02390195 =
2016-05-29 16:35 METAR KW99 292035Z AUTO 00000KT 10SM SCT065 SCT080 SCT110 24/19 A3010 RMK AO2
                 T02410187 =
2016-05-29 16:15 METAR KW99 292015Z AUTO 00000KT 10SM SCT065 SCT080 BKN110 24/19 A3011 RMK AO2
                 T02440188 =
2016-05-29 15:55 METAR KW99 291955Z AUTO 28006KT 10SM -DZ SCT080 SCT120 24/20 A3012 RMK AO2
                 T02400197 =
2016-05-29 15:35 METAR KW99 291935Z AUTO 29004KT 10SM -RA SCT027 BKN036 BKN070 24/20 A3013 RMK
                 AO2 T02410204 =
2016-05-29 15:15 METAR KW99 291915Z AUTO 25004KT 10SM -RA SCT029 BKN036 BKN048 24/20 A3014 RMK
                 AO2 T02420197 =
2016-05-29 14:55 METAR KW99 291855Z AUTO 27003KT 10SM -RA SCT048 SCT090 SCT120 25/22 A3014 RMK
                 AO2 LTG DSNT S T02520216 =
2016-05-29 14:35 METAR KW99 291835Z AUTO 00000KT 7SM -RA SCT028 SCT033 BKN050 24/23 A3013 RMK AO2
                 T02420228 =
2016-05-29 14:15 METAR KW99 291815Z AUTO 00000KT 7SM RA SCT027 BKN034 OVC050 25/23 A3013 RMK AO2
                 T02510225 =

Support USWX by starting your Amazon purchase here.